createdAt,value
2018-12-29T00:00:09.707Z,93.81
2018-12-29T00:05:29.434Z,93.74
2018-12-29T00:08:15.863Z,93.85
2018-12-29T00:10:42.095Z,93.17
2018-12-29T00:13:41.753Z,93.52
2018-12-29T00:16:23.223Z,94.20
2018-12-29T00:19:04.667Z,94.15
2018-12-29T00:21:30.791Z,94.51
2018-12-29T00:24:16.725Z,94.48
2018-12-29T00:27:00.551Z,94.38
2018-12-29T00:29:43.468Z,94.36
2018-12-29T00:32:26.624Z,94.15
2018-12-29T00:35:12.808Z,94.23
2018-12-29T00:41:10.148Z,94.09
2018-12-29T00:43:51.341Z,94.08
2018-12-29T00:46:53.144Z,94.35
2018-12-29T00:49:19.217Z,94.32
2018-12-29T00:52:00.218Z,94.74
2018-12-29T00:54:42.164Z,94.58
2018-12-29T00:57:08.219Z,94.94
2018-12-29T00:59:40.652Z,94.40
2018-12-29T01:02:33.416Z,94.09
2018-12-29T01:04:59.457Z,94.04
2018-12-29T01:07:45.336Z,94.02
2018-12-29T01:13:53.692Z,94.15
2018-12-29T01:16:40.630Z,93.87
2018-12-29T01:19:23.742Z,94.10
2018-12-29T01:22:09.908Z,93.76
2018-12-29T01:27:45.136Z,93.77
2018-12-29T01:36:03.786Z,93.58
2018-12-29T01:38:29.871Z,93.54
2018-12-29T01:41:13.682Z,92.81
2018-12-29T01:43:59.981Z,93.07
2018-12-29T01:46:43.305Z,92.79
2018-12-29T01:49:33.366Z,92.86
2018-12-29T01:52:13.757Z,92.99
2018-12-29T01:55:13.603Z,92.86
2018-12-29T01:57:59.603Z,92.32
2018-12-29T02:00:25.713Z,92.06
2018-12-29T02:03:10.297Z,92.14
2018-12-29T02:18:53.345Z,92.50
2018-12-29T02:25:03.736Z,92.61
2018-12-29T02:31:10.300Z,92.50
2018-12-29T02:33:53.358Z,92.57
2018-12-29T02:36:36.365Z,92.61
2018-12-29T02:39:19.509Z,92.52
2018-12-29T02:44:56.630Z,92.29
2018-12-29T02:50:08.307Z,92.87
2018-12-29T02:55:49.934Z,92.37
2018-12-29T02:58:15.952Z,92.28
2018-12-29T03:00:59.712Z,92.55
2018-12-29T03:03:45.902Z,91.97
2018-12-29T03:06:29.271Z,92.12
2018-12-29T03:09:10.492Z,92.28
2018-12-29T03:11:36.561Z,92.23
2018-12-29T03:14:22.121Z,92.17
2018-12-29T03:17:08.662Z,92.13
2018-12-29T03:19:54.920Z,92.35
2018-12-29T03:22:21.049Z,91.96
2018-12-29T03:25:04.187Z,91.88
2018-12-29T03:27:44.325Z,92.00
2018-12-29T03:30:27.541Z,91.90
2018-12-29T03:33:10.660Z,91.97
2018-12-29T03:35:36.834Z,91.81
2018-12-29T03:44:28.320Z,91.68
2018-12-29T03:47:11.418Z,92.16
2018-12-29T03:49:54.459Z,92.38
2018-12-29T03:52:35.698Z,92.54
2018-12-29T03:55:21.657Z,92.67
2018-12-29T03:58:08.536Z,92.32
2018-12-29T04:00:54.716Z,92.18
2018-12-29T04:03:20.855Z,92.61
2018-12-29T04:06:03.824Z,92.91
2018-12-29T04:08:45.018Z,92.38
2018-12-29T04:14:56.335Z,92.07
2018-12-29T04:17:37.353Z,91.99
2018-12-29T04:20:20.497Z,91.61
2018-12-29T04:22:46.638Z,92.23
2018-12-29T04:26:12.497Z,92.21
2018-12-29T04:28:38.643Z,91.95
2018-12-29T04:31:04.787Z,92.16
2018-12-29T04:33:30.809Z,92.26
2018-12-29T04:39:47.171Z,91.89
2018-12-29T04:42:30.271Z,92.04
2018-12-29T04:45:29.195Z,92.13
2018-12-29T04:47:55.215Z,92.29
2018-12-29T04:50:21.233Z,92.48
2018-12-29T04:53:04.461Z,92.30
2018-12-29T04:55:30.551Z,92.32
2018-12-29T04:57:56.563Z,92.13
2018-12-29T05:00:39.820Z,92.93
2018-12-29T05:03:22.809Z,92.92
2018-12-29T05:06:04.104Z,93.16
2018-12-29T05:08:30.243Z,92.76
2018-12-29T05:11:16.245Z,92.86
2018-12-29T05:17:46.687Z,93.44
2018-12-29T05:20:37.148Z,93.16
2018-12-29T05:23:03.148Z,93.27
2018-12-29T05:25:50.447Z,93.29
2018-12-29T05:28:31.864Z,93.56
2018-12-29T05:34:36.980Z,93.30
2018-12-29T05:40:04.252Z,93.79
2018-12-29T05:42:44.329Z,93.95
2018-12-29T05:45:10.356Z,94.28
2018-12-29T05:47:36.366Z,94.15
2018-12-29T05:50:17.970Z,94.07
2018-12-29T05:52:44.063Z,94.03
2018-12-29T05:59:34.346Z,94.07
2018-12-29T06:02:15.659Z,93.86
2018-12-29T06:05:02.728Z,94.44
2018-12-29T06:10:43.477Z,95.06
2018-12-29T06:16:19.721Z,95.39
2018-12-29T06:21:54.008Z,95.55
2018-12-29T06:24:37.182Z,95.31
2018-12-29T06:30:32.664Z,95.36
2018-12-29T06:33:18.785Z,95.67
2018-12-29T06:36:00.052Z,95.87
2018-12-29T06:42:10.316Z,95.84
2018-12-29T06:47:42.856Z,95.92
2018-12-29T06:53:56.916Z,97.43
2018-12-29T07:02:00.865Z,96.15
2018-12-29T07:04:26.887Z,96.37
2018-12-29T07:12:52.154Z,96.45
2018-12-29T07:15:33.698Z,96.37
2018-12-29T07:18:16.888Z,96.08
2018-12-29T07:21:03.691Z,95.86
2018-12-29T07:26:41.568Z,95.83
2018-12-29T07:32:50.903Z,95.77
2018-12-29T07:35:17.046Z,95.31
2018-12-29T07:37:49.205Z,95.22
2018-12-29T07:40:35.142Z,95.28
2018-12-29T07:43:17.006Z,95.38
2018-12-29T07:45:43.399Z,95.41
2018-12-29T07:52:06.080Z,94.90
2018-12-29T07:54:32.229Z,94.71
2018-12-29T07:56:58.333Z,94.80
2018-12-29T08:05:37.373Z,94.64
2018-12-29T08:08:03.641Z,94.38
2018-12-29T08:10:50.372Z,93.93
2018-12-29T08:13:16.401Z,93.56
2018-12-29T08:15:57.587Z,93.37
2018-12-29T08:18:40.780Z,93.09
2018-12-29T08:27:22.807Z,92.92
2018-12-29T08:30:06.035Z,92.40
2018-12-29T08:32:32.084Z,92.42
2018-12-29T08:34:58.092Z,92.28
2018-12-29T08:37:40.946Z,92.31
2018-12-29T08:43:46.281Z,91.95
2018-12-29T08:46:30.477Z,91.68
2018-12-29T08:58:21.000Z,91.07
2018-12-29T09:01:02.154Z,90.79
2018-12-29T09:03:45.203Z,90.42
2018-12-29T09:08:56.940Z,89.36
2018-12-29T09:11:38.023Z,89.29
2018-12-29T09:14:04.094Z,89.21
2018-12-29T09:16:50.105Z,89.00
2018-12-29T09:19:37.072Z,88.54
2018-12-29T09:22:03.083Z,87.88
2018-12-29T09:24:44.980Z,87.71
2018-12-29T09:27:11.078Z,87.49
2018-12-29T09:32:44.780Z,88.03
2018-12-29T09:35:30.972Z,88.37
2018-12-29T09:41:12.518Z,87.54
2018-12-29T09:43:53.215Z,87.97
2018-12-29T09:49:11.677Z,88.34
2018-12-29T09:51:54.726Z,87.80
2018-12-29T09:54:37.832Z,89.00
2018-12-29T09:57:03.843Z,87.78
2018-12-29T09:59:47.514Z,87.93
2018-12-29T10:02:13.544Z,87.96
2018-12-29T10:08:27.008Z,87.65
2018-12-29T10:11:10.263Z,87.27
2018-12-29T10:13:53.374Z,87.81
2018-12-29T10:19:26.715Z,87.16
2018-12-29T10:25:05.874Z,86.20
2018-12-29T10:27:31.911Z,85.34
2018-12-29T10:30:13.198Z,85.14
2018-12-29T10:32:56.416Z,84.97
2018-12-29T10:38:47.836Z,85.37
2018-12-29T10:41:36.233Z,85.50
2018-12-29T10:44:04.222Z,85.91
2018-12-29T10:49:59.249Z,85.39
2018-12-29T10:52:45.304Z,85.84
2018-12-29T11:01:26.975Z,86.26
2018-12-29T11:04:10.129Z,85.98
2018-12-29T11:06:51.015Z,86.49
2018-12-29T11:18:20.164Z,86.66
2018-12-29T11:21:00.045Z,87.11
2018-12-29T11:24:01.451Z,87.54
2018-12-29T11:28:57.121Z,88.17
2018-12-29T11:31:37.271Z,87.56
2018-12-29T11:34:18.268Z,88.01
2018-12-29T11:37:00.221Z,88.58
2018-12-29T11:39:43.404Z,88.56
2018-12-29T11:42:30.169Z,87.88
2018-12-29T11:44:56.219Z,88.14
2018-12-29T11:47:22.251Z,89.22
2018-12-29T11:53:31.422Z,89.59
2018-12-29T11:56:13.495Z,89.05
2018-12-29T11:58:39.616Z,88.18
2018-12-29T12:10:47.819Z,86.61
2018-12-29T12:13:29.016Z,86.83
2018-12-29T12:16:11.112Z,86.89
2018-12-29T12:18:37.253Z,87.96
2018-12-29T12:21:03.361Z,87.83
2018-12-29T12:23:43.284Z,87.82
2018-12-29T12:26:26.525Z,88.33
2018-12-29T12:32:08.745Z,88.60
2018-12-29T12:34:34.870Z,89.02
2018-12-29T12:37:17.804Z,88.65
2018-12-29T12:40:01.101Z,88.10
2018-12-29T12:43:00.948Z,87.25
2018-12-29T12:45:27.059Z,86.47
2018-12-29T12:47:53.188Z,86.73
2018-12-29T12:50:19.302Z,87.14
2018-12-29T12:53:05.380Z,87.06
2018-12-29T12:55:49.415Z,87.01
2018-12-29T12:58:30.791Z,87.12
2018-12-29T13:00:57.254Z,86.97
2018-12-29T13:03:45.085Z,86.51
2018-12-29T13:06:11.340Z,86.21
2018-12-29T13:08:57.915Z,86.68
2018-12-29T13:11:39.863Z,86.83
2018-12-29T13:17:43.263Z,87.68
2018-12-29T13:20:23.150Z,87.40
2018-12-29T13:25:40.878Z,87.29
2018-12-29T13:28:06.991Z,86.80
2018-12-29T13:33:51.139Z,87.27
2018-12-29T13:36:37.132Z,87.01
2018-12-29T13:41:57.725Z,87.80
2018-12-29T13:47:42.145Z,87.63
2018-12-29T13:50:25.765Z,87.85
2018-12-29T14:09:18.060Z,87.71
2018-12-29T14:11:44.211Z,88.45
2018-12-29T14:14:10.312Z,87.85
2018-12-29T14:26:07.057Z,88.96
2018-12-29T14:28:33.166Z,88.13
2018-12-29T14:31:14.381Z,87.88
2018-12-29T14:46:07.440Z,88.06
2018-12-29T14:48:47.556Z,88.47
2018-12-29T14:51:13.719Z,88.07
2018-12-29T14:53:39.814Z,88.19
2018-12-29T14:59:11.129Z,88.30
2018-12-29T15:10:50.449Z,88.54
2018-12-29T15:13:25.171Z,88.44
2018-12-29T15:16:06.075Z,88.66
2018-12-29T15:18:49.254Z,88.81
2018-12-29T15:24:18.924Z,89.04
2018-12-29T15:27:01.935Z,88.66
2018-12-29T15:29:43.897Z,88.91
2018-12-29T15:32:26.033Z,88.80
2018-12-29T15:35:13.997Z,88.71
2018-12-29T15:37:40.228Z,88.78
2018-12-29T15:44:07.120Z,88.23
2018-12-29T15:46:50.339Z,88.33
2018-12-29T15:49:16.457Z,88.81
2018-12-29T15:51:56.596Z,88.49
2018-12-29T15:54:42.727Z,88.59
2018-12-29T15:57:29.168Z,88.63
2018-12-29T16:00:12.440Z,88.37
2018-12-29T16:02:52.340Z,88.35
2018-12-29T16:08:20.009Z,88.45
2018-12-29T16:11:00.738Z,88.91
2018-12-29T16:13:46.551Z,88.80
2018-12-29T16:16:12.794Z,88.65
2018-12-29T16:18:58.907Z,88.33
2018-12-29T16:21:24.259Z,88.52
2018-12-29T16:23:50.399Z,88.43
2018-12-29T16:26:36.379Z,89.05
2018-12-29T16:35:24.661Z,89.36
2018-12-29T16:37:51.076Z,90.03
2018-12-29T16:40:30.867Z,90.04
2018-12-29T16:43:10.756Z,90.42
2018-12-29T16:45:54.554Z,90.76
2018-12-29T16:48:37.703Z,91.55
2018-12-29T16:51:20.691Z,91.15
2018-12-29T16:54:07.028Z,90.79
2018-12-29T16:56:33.539Z,90.87
2018-12-29T17:02:30.036Z,93.35
2018-12-29T17:05:13.180Z,95.38
2018-12-29T17:07:53.246Z,95.73
2018-12-29T17:13:44.003Z,96.86
2018-12-29T17:16:16.967Z,96.93
2018-12-29T17:19:02.923Z,96.66
2018-12-29T17:21:29.105Z,97.15
2018-12-29T17:24:32.815Z,97.28
2018-12-29T17:27:16.003Z,97.47
2018-12-29T17:29:56.426Z,97.62
2018-12-29T17:32:39.396Z,97.47
2018-12-29T17:35:23.341Z,97.67
2018-12-29T17:37:49.508Z,97.40
2018-12-29T17:40:35.541Z,97.70
2018-12-29T17:49:44.723Z,98.14
2018-12-29T17:55:34.852Z,98.02
2018-12-29T17:58:18.025Z,97.79
2018-12-29T18:01:01.194Z,97.67
2018-12-29T18:03:44.228Z,97.71
2018-12-29T18:06:10.930Z,98.04
2018-12-29T18:12:24.617Z,97.59
2018-12-29T18:15:11.652Z,97.59
2018-12-29T18:17:38.095Z,97.40
2018-12-29T18:26:47.450Z,97.92
2018-12-29T18:29:13.598Z,97.91
2018-12-29T18:31:57.148Z,98.29
2018-12-29T18:34:23.272Z,98.65
2018-12-29T18:37:09.278Z,98.31
2018-12-29T18:39:35.409Z,97.94
2018-12-29T18:45:42.682Z,98.33
2018-12-29T18:48:08.994Z,97.83
2018-12-29T18:56:45.720Z,98.16
2018-12-29T19:02:20.968Z,97.73
2018-12-29T19:04:47.106Z,97.48
2018-12-29T19:07:21.396Z,97.47
2018-12-29T19:09:47.572Z,97.66
2018-12-29T19:16:11.309Z,97.50
2018-12-29T19:18:41.437Z,97.57
2018-12-29T19:21:12.041Z,97.98
2018-12-29T19:24:27.971Z,97.23
2018-12-29T19:27:11.057Z,96.83
2018-12-29T19:29:55.370Z,96.99
2018-12-29T19:35:46.971Z,95.82
2018-12-29T19:38:21.368Z,96.21
2018-12-29T19:41:07.379Z,96.26
2018-12-29T19:43:34.118Z,96.09
2018-12-29T19:46:08.347Z,96.17
2018-12-29T19:48:54.363Z,96.34
2018-12-29T19:51:20.503Z,96.42
2018-12-29T19:54:10.063Z,96.73
2018-12-29T19:59:40.334Z,97.01
2018-12-29T20:05:34.958Z,96.91
2018-12-29T20:08:21.739Z,96.87
2018-12-29T20:11:07.978Z,97.03
2018-12-29T20:13:34.129Z,96.93
2018-12-29T20:16:20.157Z,96.63
2018-12-29T20:18:46.265Z,96.50
2018-12-29T20:21:27.987Z,96.52
2018-12-29T20:23:54.072Z,96.01
2018-12-29T20:26:40.117Z,95.99
2018-12-29T20:29:26.385Z,96.12
2018-12-29T20:35:08.777Z,96.39
2018-12-29T20:37:49.830Z,96.15
2018-12-29T20:40:15.980Z,95.92
2018-12-29T20:42:59.884Z,95.36
2018-12-29T20:45:26.052Z,95.54
2018-12-29T20:48:13.029Z,95.64
2018-12-29T20:50:56.097Z,96.06
2018-12-29T20:53:37.291Z,96.09
2018-12-29T20:56:21.361Z,96.14
2018-12-29T20:59:04.749Z,96.53
2018-12-29T21:01:30.887Z,96.74
2018-12-29T21:04:38.877Z,97.08
2018-12-29T21:07:20.168Z,97.23
2018-12-29T21:09:46.291Z,96.76
2018-12-29T21:12:12.319Z,96.68
2018-12-29T21:18:18.431Z,96.59
2018-12-29T21:20:44.890Z,96.72
2018-12-29T21:23:28.549Z,96.94
2018-12-29T21:26:14.636Z,96.66
2018-12-29T21:32:04.008Z,97.09
2018-12-29T21:34:30.147Z,96.21
2018-12-29T21:37:18.115Z,95.15
2018-12-29T21:40:00.251Z,95.25
2018-12-29T21:42:47.232Z,95.20
2018-12-29T21:48:19.755Z,93.86
2018-12-29T21:57:37.922Z,94.38
2018-12-29T22:00:23.974Z,94.58
2018-12-29T22:02:50.151Z,95.25
2018-12-29T22:05:36.177Z,95.52
2018-12-29T22:08:17.766Z,95.63
2018-12-29T22:10:59.653Z,96.01
2018-12-29T22:13:42.780Z,96.37
2018-12-29T22:16:33.778Z,96.56
2018-12-29T22:19:18.077Z,96.75
2018-12-29T22:22:01.121Z,96.66
2018-12-29T22:24:27.297Z,96.66
2018-12-29T22:27:13.475Z,96.34
2018-12-29T22:33:02.681Z,97.41
2018-12-29T22:35:50.803Z,97.53
2018-12-29T22:38:33.133Z,97.52
2018-12-29T22:41:14.183Z,97.71
2018-12-29T22:50:15.719Z,98.05
2018-12-29T22:56:27.200Z,98.16
2018-12-29T22:59:13.489Z,97.92
2018-12-29T23:01:56.665Z,97.88
2018-12-29T23:07:46.601Z,97.41
2018-12-29T23:10:34.520Z,97.74
2018-12-29T23:15:58.352Z,97.75
2018-12-29T23:18:40.859Z,97.44
2018-12-29T23:21:06.998Z,97.62
2018-12-29T23:23:54.027Z,97.44
2018-12-29T23:30:07.745Z,97.64
2018-12-29T23:32:33.914Z,97.88
2018-12-29T23:35:20.659Z,97.75
2018-12-29T23:37:48.305Z,97.76
2018-12-29T23:40:34.443Z,97.91
2018-12-29T23:43:16.078Z,98.15
2018-12-29T23:45:42.236Z,98.02
2018-12-29T23:51:34.974Z,98.17
